Domov               UVHVVR             MKGP            O straneh              
ZDRAVSTVENO VARSTVO RASTLIN
  MREŽA AGROMET. POSTAJ
 ► PROGNOSTIČNA OBVESTILA
AGROMETEOROLOŠKI PODATKI -
ARSO
OBVLADOVANJE TVEGANJ ZARADI
NEUGODNIH VREMENSKIH RAZMER
  ► NARAVNE NESREČE
  ► SUŠA/MOČA
  ► NAMAKANJE
  ► ŽLED (gozdarstvo)
KARTOGRAFSKI PRIKAZI
SPLETNE POVEZAVE
PROJEKTI IN PUBLIKACIJE

AGROMETEOROLOŠKA MREŽA: VREMENSKE POSTAJE IN FENOLOŠKA OPAZOVANJA

Pregled podatkov za lokacijo Radlje ob Dravi, meteorološka postaja 857248

Pregled senzorjev na lokaciji

ID Ime Zadnja
vrednost
Datum
zadnje
spremembe
Tip
senzorja
3912 Temperatura 2 m ( °C) 21,81 °C 19.10.2017 15:30 50YA
3913 Relativna vlaga 2 m (% RH) 40,24 % RH 19.10.2017 15:30 50YA
3914 Omočenost lista (U) 0 U 19.10.2017 15:30 A730WET
3915 Hitrost vetra (km/h) 2,2 km/h 19.10.2017 15:29 566.2S-176 (200km/h)
3916 Padavine 0.2 mm (mm) 0 mm 19.10.2017 15:30 Rain-O-Matic
3917 Smer vetra (°) 257,74 ° 19.10.2017 15:30 566.2S-130

Pregled podatkov zadnjih 24 ur

Zap.
št.
Datum in čas Radlje ob Dravi
Hitrost
vetra
Omočenost
lista
Padavine
0.2
mm
Relativna
vlaga
2
m
Smer
vetra
Temperatura
2
m
0 19.10.2017 14:30 2,2 0 0 40,24 257,74 21,81
1 19.10.2017 14:00 1,86 0 0 44,73 169,87 21,42
2 19.10.2017 13:30 1,92 0 0 46,67 357,7 20,47
3 19.10.2017 13:00 1,35 0 0 47,26 215,59 20,16
4 19.10.2017 12:30 1,7 0 0 51,34 16,57 19,2
5 19.10.2017 12:00 1,75 0 0 53,92 347,81 18,21
6 19.10.2017 11:30 1,76 0 0 56,06 333,4 17,21
7 19.10.2017 11:00 0,99 0 0 61,3 265,23 16,1
8 19.10.2017 10:30 1,43 0 0 67,65 289,5 14,42
9 19.10.2017 10:00 0,7 0 0 77,19 131,37 12,71
10 19.10.2017 09:30 0,64 0 0 80,49 175,58 11,47
11 19.10.2017 09:00 0,49 0 0 83,17 207,35 10,79
12 19.10.2017 08:30 0,54 0 0 89,38 134,86 9,5
13 19.10.2017 08:00 0,51 0 0 96,01 99,93 7,89
14 19.10.2017 07:30 0,54 2 0 100 40,16 6,06
15 19.10.2017 07:00 0,6 10 0 100 40,15 4,55
16 19.10.2017 06:30 0,6 10 0 100 40,15 4,75
17 19.10.2017 06:00 0,6 10 0 100 40,14 4,85
18 19.10.2017 05:30 0,6 10 0 100 40,15 5,21
19 19.10.2017 05:00 0,65 10 0 100 39,99 5,1
20 19.10.2017 04:30 0,59 10 0 99,98 223,72 5,22
21 19.10.2017 04:00 0,61 10 0 99,97 266,72 5,39
22 19.10.2017 03:30 0,57 10 0 99,99 22,86 5,67
23 19.10.2017 03:00 0,57 10 0 99,76 22,86 5,61
24 19.10.2017 02:30 0,57 10 0 99,46 22,87 5,97
25 19.10.2017 02:00 0,57 10 0 99,3 22,87 6,29
26 19.10.2017 01:30 0,57 10 0 99,51 57,18 6,36
27 19.10.2017 01:00 0,57 10 0 98,89 275,91 6,4
28 19.10.2017 00:30 0,58 10 0 98,81 275,93 6,9
29 19.10.2017 00:00 0,63 10 0 97,62 275,93 7,06
30 18.10.2017 23:30 0,63 10 0 96,36 275,81 7,68
31 18.10.2017 23:00 0,59 6 0 95,05 267,81 7,95
32 18.10.2017 22:30 0,53 0 0 95,09 267,77 8,12
33 18.10.2017 22:00 0,49 0 0 95,11 267,8 8,63
34 18.10.2017 21:30 0,51 0 0 93,24 285 8,98
35 18.10.2017 21:00 0,51 0 0 91,28 71,79 9,62
36 18.10.2017 20:30 0,56 0 0 89,8 71,77 10,16
37 18.10.2017 20:00 0,55 0 0 87,77 71,79 10,84
38 18.10.2017 19:30 0,67 0 0 85,76 73,81 11,63
39 18.10.2017 19:00 0,96 0 0 81,27 37,79 12,52
40 18.10.2017 18:30 1,13 0 0 76,57 80,46 13,45
41 18.10.2017 18:00 1,1 0 0 70,42 88,9 14,51
42 18.10.2017 17:30 1,3 0 0 66,75 344,01 15,3
43 18.10.2017 17:00 1,67 0 0 57,39 342,51 17,71
44 18.10.2017 16:30 1,93 0 0 44,42 331,3 20,75
© 2011 Ministrstvo za kmetijstvo, gozdarstvo in prehrano. Vse pravice pridržane.